BHS237 MYNN-KMCO
Flight info
| Callsign | BHS237 |
|---|---|
| Flight time | 0h 59m |
| Altitude | 24000 |
| Route | PEACH DCT CCLUB MUNGI1 |
| Aircraft | B737/M-SDE2E3FGHIRWXY/LB1 |
Departure
| Time | 2026-04-24 21:58 |
|---|---|
| Airport | Lynden Pindling International Airport (MYNN) |
Arrival
| Time | 2026-04-24 22:57 |
|---|---|
| Airport | Orlando International Airport (KMCO) |
| Time | Latitude | Longitude | Altitude | Speed | Heading |
|---|---|---|---|---|---|
| 2026-04-24 21:30 | 25.05056 | -77.46846 | 16 ft | 0 kts | 347° |
| 2026-04-24 21:46 | 25.05044 | -77.46844 | 18 ft | 3 kts | 348° |
| 2026-04-24 21:46 | 25.05024 | -77.46840 | 17 ft | 3 kts | 354° |
| 2026-04-24 21:46 | 25.05005 | -77.46839 | 17 ft | 3 kts | 15° |
| 2026-04-24 21:46 | 25.04990 | -77.46848 | 16 ft | 2 kts | 65° |
| 2026-04-24 21:47 | 25.04983 | -77.46866 | 17 ft | 3 kts | 66° |
| 2026-04-24 21:47 | 25.04977 | -77.46880 | 18 ft | 3 kts | 66° |
| 2026-04-24 21:47 | 25.04968 | -77.46903 | 19 ft | 3 kts | 67° |
| 2026-04-24 21:47 | 25.04961 | -77.46924 | 17 ft | 3 kts | 81° |
| 2026-04-24 21:48 | 25.04961 | -77.46944 | 16 ft | 3 kts | 121° |
| 2026-04-24 21:48 | 25.04971 | -77.46957 | 18 ft | 3 kts | 134° |
| 2026-04-24 21:48 | 25.04984 | -77.46972 | 17 ft | 2 kts | 134° |
| 2026-04-24 21:48 | 25.04986 | -77.46974 | 17 ft | 0 kts | 134° |
| 2026-04-24 21:51 | 25.04985 | -77.46973 | 17 ft | 1 kts | 134° |
| 2026-04-24 21:51 | 25.04975 | -77.46962 | 17 ft | 2 kts | 134° |
| 2026-04-24 21:51 | 25.04963 | -77.46948 | 16 ft | 3 kts | 134° |
| 2026-04-24 21:51 | 25.04942 | -77.46934 | 18 ft | 3 kts | 162° |
| 2026-04-24 21:52 | 25.04916 | -77.46937 | 16 ft | 5 kts | 201° |
| 2026-04-24 21:52 | 25.04895 | -77.46966 | 17 ft | 5 kts | 254° |
| 2026-04-24 21:52 | 25.04908 | -77.47005 | 17 ft | 6 kts | 307° |
| 2026-04-24 21:52 | 25.04942 | -77.47045 | 17 ft | 8 kts | 314° |
| 2026-04-24 21:53 | 25.04988 | -77.47097 | 18 ft | 11 kts | 315° |
| 2026-04-24 21:53 | 25.05047 | -77.47163 | 18 ft | 13 kts | 314° |
| 2026-04-24 21:53 | 25.05118 | -77.47243 | 18 ft | 15 kts | 314° |
| 2026-04-24 21:53 | 25.05168 | -77.47300 | 17 ft | 10 kts | 314° |
| 2026-04-24 21:54 | 25.05215 | -77.47362 | 17 ft | 11 kts | 296° |
| 2026-04-24 21:54 | 25.05218 | -77.47426 | 18 ft | 3 kts | 255° |
| 2026-04-24 21:56 | 25.05213 | -77.47449 | 18 ft | 7 kts | 254° |
| 2026-04-24 21:57 | 25.05191 | -77.47511 | 22 ft | 9 kts | 236° |
| 2026-04-24 21:57 | 25.05138 | -77.47519 | 19 ft | 9 kts | 147° |
| 2026-04-24 21:57 | 25.05046 | -77.47418 | 18 ft | 45 kts | 134° |
| 2026-04-24 21:57 | 25.04670 | -77.47001 | 20 ft | 106 kts | 135° |
| 2026-04-24 21:58 | 25.04026 | -77.46316 | 97 ft | 143 kts | 138° |
| 2026-04-24 21:58 | 25.03303 | -77.45586 | 672 ft | 142 kts | 137° |
| 2026-04-24 21:58 | 25.02535 | -77.44825 | 1199 ft | 149 kts | 138° |
| 2026-04-24 21:58 | 25.01768 | -77.44069 | 1802 ft | 147 kts | 131° |
| 2026-04-24 21:59 | 25.01222 | -77.43076 | 2321 ft | 159 kts | 106° |
| 2026-04-24 21:59 | 25.01210 | -77.41807 | 2866 ft | 174 kts | 75° |
| 2026-04-24 21:59 | 25.01897 | -77.40662 | 3323 ft | 197 kts | 37° |
| 2026-04-24 21:59 | 25.03271 | -77.40255 | 3654 ft | 220 kts | 352° |
| 2026-04-24 22:00 | 25.04698 | -77.40983 | 4138 ft | 232 kts | 319° |
| 2026-04-24 22:00 | 25.05872 | -77.42224 | 4804 ft | 239 kts | 315° |
| 2026-04-24 22:00 | 25.07042 | -77.43431 | 5999 ft | 222 kts | 316° |
| 2026-04-24 22:00 | 25.08230 | -77.44581 | 6694 ft | 236 kts | 318° |
| 2026-04-24 22:01 | 25.09564 | -77.45833 | 6944 ft | 266 kts | 318° |
| 2026-04-24 22:01 | 25.10516 | -77.46723 | 7367 ft | 273 kts | 318° |
| 2026-04-24 22:01 | 25.11983 | -77.48091 | 8236 ft | 277 kts | 318° |
| 2026-04-24 22:01 | 25.13456 | -77.49467 | 9230 ft | 278 kts | 318° |
| 2026-04-24 22:02 | 25.14939 | -77.50855 | 10169 ft | 281 kts | 317° |
| 2026-04-24 22:02 | 25.16475 | -77.52297 | 10641 ft | 302 kts | 317° |
| 2026-04-24 22:02 | 25.18155 | -77.53878 | 10890 ft | 327 kts | 317° |
| 2026-04-24 22:02 | 25.19915 | -77.55533 | 11529 ft | 337 kts | 317° |
| 2026-04-24 22:03 | 25.21712 | -77.57222 | 12369 ft | 340 kts | 317° |
| 2026-04-24 22:03 | 25.23524 | -77.58925 | 13246 ft | 343 kts | 317° |
| 2026-04-24 22:03 | 25.25355 | -77.60647 | 14062 ft | 348 kts | 317° |
| 2026-04-24 22:03 | 25.27214 | -77.62398 | 14832 ft | 352 kts | 317° |
| 2026-04-24 22:04 | 25.29080 | -77.64156 | 15655 ft | 354 kts | 317° |
| 2026-04-24 22:04 | 25.30969 | -77.65937 | 16485 ft | 358 kts | 316° |
| 2026-04-24 22:04 | 25.32871 | -77.67731 | 17280 ft | 362 kts | 316° |
| 2026-04-24 22:04 | 25.34773 | -77.69526 | 18049 ft | 366 kts | 316° |
| 2026-04-24 22:05 | 25.36722 | -77.71367 | 18748 ft | 370 kts | 316° |
| 2026-04-24 22:05 | 25.38685 | -77.73221 | 19425 ft | 373 kts | 316° |
| 2026-04-24 22:05 | 25.40664 | -77.75090 | 20111 ft | 376 kts | 316° |
| 2026-04-24 22:05 | 25.42667 | -77.76984 | 20794 ft | 380 kts | 316° |
| 2026-04-24 22:06 | 25.44683 | -77.78900 | 21458 ft | 383 kts | 316° |
| 2026-04-24 22:06 | 25.46711 | -77.80842 | 22096 ft | 387 kts | 316° |
| 2026-04-24 22:06 | 25.48754 | -77.82804 | 22728 ft | 390 kts | 316° |
| 2026-04-24 22:06 | 25.50791 | -77.84763 | 23299 ft | 395 kts | 316° |
| 2026-04-24 22:07 | 25.52881 | -77.86773 | 23798 ft | 399 kts | 316° |
| 2026-04-24 22:07 | 25.54977 | -77.88788 | 23939 ft | 397 kts | 316° |
| 2026-04-24 22:07 | 25.57056 | -77.90786 | 23975 ft | 397 kts | 316° |
| 2026-04-24 22:07 | 25.59153 | -77.92803 | 23972 ft | 399 kts | 316° |
| 2026-04-24 22:08 | 25.61246 | -77.94816 | 23975 ft | 398 kts | 316° |
| 2026-04-24 22:08 | 25.63336 | -77.96828 | 23980 ft | 398 kts | 316° |
| 2026-04-24 22:08 | 25.65428 | -77.98842 | 23983 ft | 398 kts | 316° |
| 2026-04-24 22:08 | 25.67525 | -78.00863 | 23979 ft | 398 kts | 316° |
| 2026-04-24 22:09 | 25.69591 | -78.02854 | 23975 ft | 398 kts | 316° |
| 2026-04-24 22:09 | 25.71677 | -78.04866 | 23980 ft | 398 kts | 316° |
| 2026-04-24 22:09 | 25.73765 | -78.06881 | 23978 ft | 398 kts | 316° |
| 2026-04-24 22:09 | 25.75858 | -78.08902 | 23978 ft | 398 kts | 316° |
| 2026-04-24 22:10 | 25.77949 | -78.10921 | 23977 ft | 398 kts | 316° |
| 2026-04-24 22:10 | 25.80037 | -78.12939 | 23977 ft | 398 kts | 316° |
| 2026-04-24 22:10 | 25.82129 | -78.14962 | 23979 ft | 398 kts | 316° |
| 2026-04-24 22:10 | 25.84218 | -78.16982 | 23980 ft | 398 kts | 316° |
| 2026-04-24 22:11 | 25.86310 | -78.19007 | 23978 ft | 398 kts | 316° |
| 2026-04-24 22:11 | 25.88397 | -78.21027 | 23975 ft | 398 kts | 316° |
| 2026-04-24 22:11 | 25.90484 | -78.23049 | 23980 ft | 398 kts | 316° |
| 2026-04-24 22:11 | 25.92570 | -78.25071 | 23983 ft | 400 kts | 316° |
| 2026-04-24 22:12 | 25.94695 | -78.27134 | 23989 ft | 412 kts | 316° |
| 2026-04-24 22:12 | 25.96885 | -78.29261 | 23991 ft | 423 kts | 316° |
| 2026-04-24 22:12 | 25.99100 | -78.31414 | 23992 ft | 432 kts | 316° |
| 2026-04-24 22:12 | 26.01383 | -78.33632 | 23988 ft | 439 kts | 316° |
| 2026-04-24 22:13 | 26.03699 | -78.35882 | 23987 ft | 445 kts | 316° |
| 2026-04-24 22:13 | 26.06043 | -78.38159 | 23980 ft | 449 kts | 316° |
| 2026-04-24 22:13 | 26.08381 | -78.40432 | 23971 ft | 446 kts | 316° |
| 2026-04-24 22:13 | 26.10717 | -78.42703 | 23976 ft | 446 kts | 316° |
| 2026-04-24 22:14 | 26.13049 | -78.44972 | 23979 ft | 445 kts | 316° |
| 2026-04-24 22:14 | 26.15386 | -78.47248 | 23984 ft | 446 kts | 316° |
| 2026-04-24 22:14 | 26.17723 | -78.49527 | 23984 ft | 446 kts | 316° |
| 2026-04-24 22:14 | 26.20055 | -78.51801 | 23982 ft | 446 kts | 316° |
| 2026-04-24 22:15 | 26.22390 | -78.54081 | 23980 ft | 446 kts | 316° |
| 2026-04-24 22:15 | 26.24723 | -78.56359 | 23983 ft | 446 kts | 317° |
| 2026-04-24 22:15 | 26.27066 | -78.58648 | 23983 ft | 446 kts | 317° |
| 2026-04-24 22:15 | 26.29362 | -78.60892 | 23983 ft | 446 kts | 317° |
| 2026-04-24 22:16 | 26.31697 | -78.63176 | 23981 ft | 446 kts | 317° |
| 2026-04-24 22:16 | 26.34030 | -78.65460 | 23984 ft | 446 kts | 317° |
| 2026-04-24 22:16 | 26.36359 | -78.67741 | 23982 ft | 446 kts | 317° |
| 2026-04-24 22:16 | 26.38690 | -78.70024 | 23982 ft | 445 kts | 317° |
| 2026-04-24 22:17 | 26.41020 | -78.72308 | 23981 ft | 445 kts | 317° |
| 2026-04-24 22:17 | 26.43349 | -78.74593 | 23980 ft | 445 kts | 317° |
| 2026-04-24 22:17 | 26.45683 | -78.76883 | 23981 ft | 445 kts | 317° |
| 2026-04-24 22:17 | 26.48013 | -78.79171 | 23982 ft | 445 kts | 317° |
| 2026-04-24 22:18 | 26.50339 | -78.81457 | 23978 ft | 445 kts | 317° |
| 2026-04-24 22:18 | 26.52630 | -78.83710 | 23980 ft | 445 kts | 317° |
| 2026-04-24 22:18 | 26.54959 | -78.86000 | 23985 ft | 445 kts | 317° |
| 2026-04-24 22:18 | 26.57318 | -78.88322 | 23981 ft | 445 kts | 317° |
| 2026-04-24 22:19 | 26.59605 | -78.90574 | 23979 ft | 445 kts | 317° |
| 2026-04-24 22:19 | 26.61935 | -78.92870 | 23981 ft | 445 kts | 317° |
| 2026-04-24 22:19 | 26.64253 | -78.95156 | 23984 ft | 445 kts | 317° |
| 2026-04-24 22:19 | 26.66584 | -78.97454 | 23980 ft | 445 kts | 317° |
| 2026-04-24 22:20 | 26.68919 | -78.99759 | 23981 ft | 445 kts | 317° |
| 2026-04-24 22:20 | 26.71216 | -79.02027 | 23982 ft | 445 kts | 317° |
| 2026-04-24 22:20 | 26.73536 | -79.04321 | 23985 ft | 445 kts | 317° |
| 2026-04-24 22:20 | 26.75857 | -79.06614 | 23986 ft | 445 kts | 317° |
| 2026-04-24 22:21 | 26.78174 | -79.08907 | 23981 ft | 445 kts | 317° |
| 2026-04-24 22:21 | 26.80507 | -79.11216 | 23980 ft | 445 kts | 316° |
| 2026-04-24 22:21 | 26.82822 | -79.13509 | 23981 ft | 445 kts | 317° |
| 2026-04-24 22:21 | 26.85141 | -79.15807 | 23979 ft | 445 kts | 316° |
| 2026-04-24 22:22 | 26.87464 | -79.18110 | 23980 ft | 445 kts | 317° |
| 2026-04-24 22:22 | 26.89780 | -79.20408 | 23979 ft | 445 kts | 316° |
| 2026-04-24 22:22 | 26.92096 | -79.22706 | 23980 ft | 445 kts | 317° |
| 2026-04-24 22:22 | 26.94385 | -79.24980 | 23980 ft | 445 kts | 316° |
| 2026-04-24 22:23 | 26.96732 | -79.27313 | 23979 ft | 445 kts | 316° |
| 2026-04-24 22:23 | 26.99015 | -79.29582 | 23982 ft | 445 kts | 316° |
| 2026-04-24 22:23 | 27.01362 | -79.31918 | 23982 ft | 445 kts | 316° |
| 2026-04-24 22:23 | 27.03676 | -79.34221 | 23981 ft | 445 kts | 316° |
| 2026-04-24 22:24 | 27.05994 | -79.36530 | 23984 ft | 445 kts | 316° |
| 2026-04-24 22:24 | 27.08305 | -79.38834 | 23984 ft | 445 kts | 316° |
| 2026-04-24 22:24 | 27.10588 | -79.41111 | 23984 ft | 445 kts | 316° |
| 2026-04-24 22:24 | 27.12929 | -79.43447 | 23984 ft | 445 kts | 316° |
| 2026-04-24 22:25 | 27.15212 | -79.45726 | 23982 ft | 445 kts | 316° |
| 2026-04-24 22:25 | 27.17530 | -79.48042 | 23980 ft | 445 kts | 316° |
| 2026-04-24 22:25 | 27.19843 | -79.50354 | 23979 ft | 445 kts | 316° |
| 2026-04-24 22:25 | 27.21957 | -79.52869 | 23968 ft | 443 kts | 304° |
| 2026-04-24 22:26 | 27.23468 | -79.55867 | 23994 ft | 441 kts | 296° |
| 2026-04-24 22:26 | 27.24833 | -79.58954 | 23981 ft | 441 kts | 296° |
| 2026-04-24 22:26 | 27.26190 | -79.62056 | 23979 ft | 442 kts | 295° |
| 2026-04-24 22:26 | 27.27547 | -79.65146 | 23979 ft | 442 kts | 296° |
| 2026-04-24 22:27 | 27.28916 | -79.68241 | 23978 ft | 442 kts | 296° |
| 2026-04-24 22:27 | 27.30292 | -79.71328 | 23981 ft | 442 kts | 296° |
| 2026-04-24 22:27 | 27.31678 | -79.74421 | 23981 ft | 442 kts | 296° |
| 2026-04-24 22:27 | 27.33063 | -79.77503 | 23981 ft | 442 kts | 296° |
| 2026-04-24 22:28 | 27.34450 | -79.80589 | 23976 ft | 442 kts | 296° |
| 2026-04-24 22:28 | 27.35839 | -79.83679 | 23977 ft | 442 kts | 296° |
| 2026-04-24 22:28 | 27.37226 | -79.86767 | 23978 ft | 442 kts | 296° |
| 2026-04-24 22:28 | 27.38611 | -79.89852 | 23979 ft | 442 kts | 296° |
| 2026-04-24 22:29 | 27.41380 | -79.96029 | 23976 ft | 442 kts | 296° |
| 2026-04-24 22:29 | 27.42764 | -79.99122 | 23975 ft | 442 kts | 296° |
| 2026-04-24 22:29 | 27.44148 | -80.02216 | 23975 ft | 442 kts | 296° |
| 2026-04-24 22:30 | 27.45529 | -80.05307 | 23974 ft | 442 kts | 296° |
| 2026-04-24 22:30 | 27.46911 | -80.08402 | 23974 ft | 442 kts | 296° |
| 2026-04-24 22:30 | 27.48293 | -80.11498 | 23972 ft | 442 kts | 296° |
| 2026-04-24 22:30 | 27.49672 | -80.14591 | 23973 ft | 442 kts | 296° |
| 2026-04-24 22:31 | 27.51052 | -80.17688 | 23971 ft | 442 kts | 296° |
| 2026-04-24 22:31 | 27.52438 | -80.20800 | 23972 ft | 442 kts | 296° |
| 2026-04-24 22:31 | 27.53816 | -80.23899 | 23970 ft | 442 kts | 296° |
| 2026-04-24 22:31 | 27.55191 | -80.26990 | 23975 ft | 442 kts | 296° |
| 2026-04-24 22:32 | 27.56574 | -80.30104 | 23972 ft | 442 kts | 296° |
| 2026-04-24 22:32 | 27.57947 | -80.33197 | 23973 ft | 442 kts | 296° |
| 2026-04-24 22:32 | 27.59325 | -80.36304 | 23981 ft | 442 kts | 296° |
| 2026-04-24 22:32 | 27.60702 | -80.39409 | 23982 ft | 443 kts | 296° |
| 2026-04-24 22:33 | 27.62079 | -80.42519 | 23979 ft | 443 kts | 296° |
| 2026-04-24 22:33 | 27.63438 | -80.45589 | 23982 ft | 443 kts | 295° |
| 2026-04-24 22:33 | 27.64831 | -80.48741 | 23983 ft | 443 kts | 295° |
| 2026-04-24 22:33 | 27.66199 | -80.51837 | 23982 ft | 443 kts | 295° |
| 2026-04-24 22:34 | 27.67579 | -80.54962 | 23979 ft | 443 kts | 295° |
| 2026-04-24 22:34 | 27.68945 | -80.58056 | 23978 ft | 443 kts | 295° |
| 2026-04-24 22:34 | 27.70324 | -80.61185 | 23976 ft | 443 kts | 295° |
| 2026-04-24 22:34 | 27.71694 | -80.64295 | 23976 ft | 443 kts | 295° |
| 2026-04-24 22:35 | 27.73065 | -80.67411 | 23970 ft | 443 kts | 295° |
| 2026-04-24 22:35 | 27.74431 | -80.70516 | 23967 ft | 443 kts | 295° |
| 2026-04-24 22:35 | 27.75790 | -80.73605 | 23950 ft | 427 kts | 295° |
| 2026-04-24 22:35 | 27.77077 | -80.76530 | 23946 ft | 406 kts | 295° |
| 2026-04-24 22:36 | 27.78444 | -80.79245 | 23941 ft | 389 kts | 301° |
| 2026-04-24 22:36 | 27.79968 | -80.81789 | 23960 ft | 393 kts | 303° |
| 2026-04-24 22:36 | 27.81550 | -80.84305 | 23698 ft | 393 kts | 304° |
| 2026-04-24 22:36 | 27.83132 | -80.86822 | 23098 ft | 393 kts | 303° |
| 2026-04-24 22:37 | 27.84693 | -80.89343 | 22433 ft | 389 kts | 303° |
| 2026-04-24 22:37 | 27.86223 | -80.91850 | 21737 ft | 386 kts | 303° |
| 2026-04-24 22:37 | 27.87733 | -80.94349 | 21066 ft | 383 kts | 303° |
| 2026-04-24 22:37 | 27.89226 | -80.96828 | 20403 ft | 380 kts | 303° |
| 2026-04-24 22:38 | 27.90693 | -80.99268 | 19749 ft | 378 kts | 303° |
| 2026-04-24 22:38 | 27.92175 | -81.01716 | 19090 ft | 377 kts | 305° |
| 2026-04-24 22:38 | 27.94019 | -81.03816 | 18408 ft | 379 kts | 322° |
| 2026-04-24 22:38 | 27.96338 | -81.05230 | 17665 ft | 381 kts | 336° |
| 2026-04-24 22:39 | 27.98818 | -81.06264 | 16986 ft | 377 kts | 338° |
| 2026-04-24 22:39 | 28.01284 | -81.07245 | 16318 ft | 374 kts | 338° |
| 2026-04-24 22:39 | 28.03727 | -81.08240 | 15663 ft | 371 kts | 338° |
| 2026-04-24 22:39 | 28.05362 | -81.08922 | 15225 ft | 369 kts | 338° |
| 2026-04-24 22:40 | 28.07764 | -81.09935 | 14575 ft | 367 kts | 338° |
| 2026-04-24 22:40 | 28.10140 | -81.10961 | 13930 ft | 365 kts | 337° |
| 2026-04-24 22:40 | 28.12510 | -81.12007 | 13211 ft | 363 kts | 337° |
| 2026-04-24 22:40 | 28.14817 | -81.13029 | 12528 ft | 361 kts | 337° |
| 2026-04-24 22:41 | 28.17183 | -81.14077 | 11863 ft | 357 kts | 337° |
| 2026-04-24 22:41 | 28.19457 | -81.15082 | 11332 ft | 351 kts | 337° |
| 2026-04-24 22:41 | 28.21687 | -81.16065 | 11126 ft | 332 kts | 337° |
| 2026-04-24 22:41 | 28.23770 | -81.16982 | 11012 ft | 309 kts | 337° |
| 2026-04-24 22:42 | 28.25712 | -81.17837 | 10985 ft | 289 kts | 337° |
| 2026-04-24 22:42 | 28.27577 | -81.18536 | 10977 ft | 278 kts | 349° |
| 2026-04-24 22:42 | 28.29504 | -81.18659 | 10634 ft | 278 kts | 357° |
| 2026-04-24 22:42 | 28.31450 | -81.18656 | 10234 ft | 279 kts | 357° |
| 2026-04-24 22:43 | 28.33390 | -81.18663 | 9927 ft | 277 kts | 357° |
| 2026-04-24 22:43 | 28.35288 | -81.18685 | 9580 ft | 275 kts | 356° |
| 2026-04-24 22:43 | 28.37199 | -81.18716 | 9269 ft | 272 kts | 356° |
| 2026-04-24 22:43 | 28.39050 | -81.18747 | 9183 ft | 260 kts | 356° |
| 2026-04-24 22:44 | 28.40828 | -81.18766 | 9041 ft | 252 kts | 357° |
| 2026-04-24 22:44 | 28.42567 | -81.18779 | 8778 ft | 250 kts | 357° |
| 2026-04-24 22:44 | 28.44303 | -81.18793 | 8444 ft | 250 kts | 357° |
| 2026-04-24 22:44 | 28.46038 | -81.18807 | 8158 ft | 248 kts | 357° |
| 2026-04-24 22:45 | 28.47765 | -81.18822 | 7837 ft | 248 kts | 357° |
| 2026-04-24 22:45 | 28.49487 | -81.18836 | 7555 ft | 247 kts | 357° |
| 2026-04-24 22:45 | 28.51212 | -81.18850 | 7255 ft | 246 kts | 357° |
| 2026-04-24 22:45 | 28.52920 | -81.18864 | 6970 ft | 246 kts | 358° |
| 2026-04-24 22:46 | 28.54616 | -81.18882 | 6819 ft | 239 kts | 356° |
| 2026-04-24 22:46 | 28.56232 | -81.18940 | 6665 ft | 233 kts | 356° |
| 2026-04-24 22:46 | 28.57871 | -81.19009 | 6438 ft | 234 kts | 356° |
| 2026-04-24 22:46 | 28.59480 | -81.19079 | 6201 ft | 235 kts | 356° |
| 2026-04-24 22:47 | 28.61117 | -81.19137 | 5998 ft | 236 kts | 358° |
| 2026-04-24 22:47 | 28.62788 | -81.19165 | 5586 ft | 243 kts | 360° |
| 2026-04-24 22:47 | 28.64492 | -81.19173 | 5205 ft | 246 kts | 353° |
| 2026-04-24 22:47 | 28.66041 | -81.19968 | 4825 ft | 248 kts | 314° |
| 2026-04-24 22:48 | 28.66873 | -81.21639 | 4576 ft | 243 kts | 281° |
| 2026-04-24 22:48 | 28.66886 | -81.23536 | 4326 ft | 239 kts | 255° |
| 2026-04-24 22:48 | 28.66286 | -81.25270 | 4105 ft | 234 kts | 240° |
| 2026-04-24 22:48 | 28.65540 | -81.26848 | 4145 ft | 220 kts | 238° |
| 2026-04-24 22:49 | 28.64794 | -81.28288 | 5283 ft | 192 kts | 237° |
| 2026-04-24 22:49 | 28.64107 | -81.29628 | 5332 ft | 204 kts | 246° |
| 2026-04-24 22:49 | 28.63826 | -81.31226 | 5286 ft | 211 kts | 270° |
| 2026-04-24 22:49 | 28.64168 | -81.32857 | 5091 ft | 219 kts | 298° |
| 2026-04-24 22:50 | 28.65228 | -81.34084 | 4842 ft | 219 kts | 334° |
| 2026-04-24 22:50 | 28.66684 | -81.34304 | 4544 ft | 211 kts | 19° |
| 2026-04-24 22:50 | 28.67748 | -81.33260 | 4158 ft | 202 kts | 75° |
| 2026-04-24 22:50 | 28.67637 | -81.31826 | 4082 ft | 181 kts | 126° |
| 2026-04-24 22:51 | 28.66643 | -81.31058 | 3934 ft | 176 kts | 166° |
| 2026-04-24 22:51 | 28.65405 | -81.30915 | 3841 ft | 181 kts | 178° |
| 2026-04-24 22:51 | 28.64161 | -81.30884 | 3692 ft | 177 kts | 160° |
| 2026-04-24 22:51 | 28.63190 | -81.30127 | 3542 ft | 166 kts | 134° |
| 2026-04-24 22:52 | 28.62296 | -81.29351 | 3386 ft | 157 kts | 143° |
| 2026-04-24 22:52 | 28.61379 | -81.28767 | 3230 ft | 150 kts | 167° |
| 2026-04-24 22:52 | 28.60363 | -81.28739 | 3067 ft | 143 kts | 171° |
| 2026-04-24 22:52 | 28.59378 | -81.28554 | 2897 ft | 146 kts | 166° |
| 2026-04-24 22:53 | 28.58355 | -81.28436 | 2688 ft | 151 kts | 174° |
| 2026-04-24 22:53 | 28.57318 | -81.28401 | 2506 ft | 142 kts | 174° |
| 2026-04-24 22:53 | 28.56361 | -81.28385 | 2277 ft | 132 kts | 175° |
| 2026-04-24 22:53 | 28.55457 | -81.28374 | 2138 ft | 127 kts | 174° |
| 2026-04-24 22:54 | 28.54568 | -81.28364 | 1951 ft | 128 kts | 173° |
| 2026-04-24 22:54 | 28.53687 | -81.28352 | 1804 ft | 126 kts | 173° |
| 2026-04-24 22:54 | 28.52795 | -81.28346 | 1616 ft | 129 kts | 173° |
| 2026-04-24 22:54 | 28.51897 | -81.28344 | 1449 ft | 130 kts | 176° |
| 2026-04-24 22:55 | 28.51002 | -81.28407 | 1232 ft | 129 kts | 177° |
| 2026-04-24 22:55 | 28.50091 | -81.28441 | 1090 ft | 131 kts | 171° |
| 2026-04-24 22:55 | 28.49199 | -81.28370 | 956 ft | 128 kts | 171° |
| 2026-04-24 22:55 | 28.48284 | -81.28326 | 799 ft | 130 kts | 172° |
| 2026-04-24 22:56 | 28.47388 | -81.28316 | 677 ft | 128 kts | 177° |
| 2026-04-24 22:56 | 28.46481 | -81.28301 | 551 ft | 130 kts | 177° |
| 2026-04-24 22:56 | 28.45590 | -81.28287 | 378 ft | 129 kts | 178° |
| 2026-04-24 22:56 | 28.44684 | -81.28264 | 200 ft | 131 kts | 180° |
| 2026-04-24 22:57 | 28.43798 | -81.28263 | 99 ft | 119 kts | 179° |
| 2026-04-24 22:57 | 28.43086 | -81.28253 | 95 ft | 81 kts | 179° |
| 2026-04-24 22:57 | 28.42674 | -81.28246 | 99 ft | 36 kts | 182° |
| 2026-04-24 22:57 | 28.42513 | -81.28384 | 95 ft | 29 kts | 251° |
| 2026-04-24 22:58 | 28.42450 | -81.28594 | 97 ft | 27 kts | 251° |
| 2026-04-24 22:58 | 28.42404 | -81.28736 | 102 ft | 14 kts | 250° |
| 2026-04-24 22:58 | 28.42374 | -81.28840 | 103 ft | 14 kts | 250° |
| 2026-04-24 22:58 | 28.42340 | -81.28940 | 101 ft | 13 kts | 250° |
| 2026-04-24 22:59 | 28.42309 | -81.29043 | 94 ft | 18 kts | 252° |
| 2026-04-24 22:59 | 28.42287 | -81.29180 | 94 ft | 17 kts | 266° |
| 2026-04-24 22:59 | 28.42283 | -81.29445 | 94 ft | 16 kts | 270° |
| 2026-04-24 23:00 | 28.42284 | -81.29569 | 93 ft | 15 kts | 270° |
| 2026-04-24 23:00 | 28.42283 | -81.29689 | 93 ft | 15 kts | 269° |
| 2026-04-24 23:00 | 28.42314 | -81.29788 | 96 ft | 14 kts | 335° |
| 2026-04-24 23:00 | 28.42410 | -81.29795 | 94 ft | 14 kts | 359° |
| 2026-04-24 23:01 | 28.42509 | -81.29796 | 94 ft | 17 kts | 359° |
| 2026-04-24 23:01 | 28.42657 | -81.29798 | 94 ft | 25 kts | 0° |
| 2026-04-24 23:01 | 28.42848 | -81.29798 | 95 ft | 29 kts | 359° |
| 2026-04-24 23:01 | 28.43049 | -81.29800 | 95 ft | 28 kts | 0° |
| 2026-04-24 23:02 | 28.43238 | -81.29801 | 95 ft | 26 kts | 358° |
| 2026-04-24 23:02 | 28.43337 | -81.29855 | 94 ft | 16 kts | 263° |
| 2026-04-24 23:02 | 28.43295 | -81.29972 | 94 ft | 16 kts | 249° |
| 2026-04-24 23:02 | 28.43283 | -81.30090 | 94 ft | 15 kts | 285° |
| 2026-04-24 23:03 | 28.43331 | -81.30176 | 94 ft | 12 kts | 317° |
| 2026-04-24 23:03 | 28.43383 | -81.30172 | 94 ft | 7 kts | 52° |
| 2026-04-24 23:03 | 28.43404 | -81.30128 | 96 ft | 6 kts | 64° |
| 2026-04-24 23:03 | 28.43412 | -81.30111 | 96 ft | 0 kts | 63° |